x

South Moresby (46147) Wave Buoy

11:00am - Mon 3rd Aug 2015 All times are PDT. -7 hours from GMT.

  • Sig Wave height 4.6ft
  • Peak Period 6s
  • Wind
    13mph, 16mph gusts
  • Sea Temp 56°f
  • Air Temp 58°f
  • Sea Pressure 1017.7mb
  • South Moresby
  • South Moresby

More Historic Weather Station data

Upgrade to MSW Pro to gain access to the past 30 days of data for over 8000 Wavebouys and Weather Stations around the globe.

Join Pro

Comparision Forecast

View Surf forecast
   
Mon 08/03 11:00am 4.5ft 6s 13 16 mph 1017.7mb 56f 58f
10:00am 4.5ft 6s 11 13 mph 1017.6mb 55f 58f
9:00am 4.5ft 6s 16 18 mph 1017.3mb 55f 58f
8:00am 4.5ft 6s 13 16 mph 1017mb 56f 58f
7:00am 4.5ft 6s 11 13 mph 1016.8mb 58f 58f
6:00am 3.5ft 5s 16 22 mph 1016.4mb 59f 58f
5:00am 3.5ft 6s 9
mph
1016.3mb 59f 58f
4:00am 4ft 6s 7 9 mph 1016.1mb 58f 58f
3:00am 3ft 14s 16 20 mph 1015.9mb 59f 58f
2:00am 3ft 14s 11 13 mph 1016.1mb 58f 58f
1:00am 3ft 14s 11
mph
1016.2mb 55f 58f
12:00am 2.5ft 14s 9
mph
1016.3mb 56f 58f
Sun 08/02 11:00pm 3ft 14s 7
mph
1016.3mb 55f 57f
10:00pm 2.5ft 14s 9 11 mph 1016mb 56f 56f
9:00pm 2.5ft 16s 2
mph
1015.9mb 57f 58f
8:00pm 2.5ft 14s 7
mph
1015.8mb 58f 59f
7:00pm 3ft 14s 9 11 mph 1015.8mb 54f 59f
6:00pm 3ft 14s 4
mph
1015.8mb 54f 58f
5:00pm 2.5ft 14s 7
mph
1016mb 55f 58f
4:00pm 2.5ft 13s 4 7 mph 1016.1mb 54f 59f
3:00pm 2.5ft 14s 7 9 mph 1016.3mb 53f 59f
2:00pm 2.5ft 14s 4
mph
1016.4mb 55f 59f
1:00pm 2.5ft 14s 7 9 mph 1016.6mb 55f 58f
12:00pm 2.5ft 13s 7
mph
1017mb 55f 59f
11:00am 2.5ft 14s 2 4 mph 1016.9mb 55f 60f
10:00am 2.5ft 14s 2 4 mph 1017.2mb 59f 59f
9:00am 2.5ft 14s 4
mph
1017.2mb 60f 58f
8:00am 2.5ft 15s 2 4 mph 1017.3mb 60f 59f
7:00am 2.5ft 14s 2
mph
1017.7mb 60f 59f
6:00am 2.5ft 14s 2
mph
1017.6mb 60f 59f
5:00am 2.5ft 14s 2
mph
1017.7mb 60f 59f
4:00am 2.5ft 14s 4 7 mph 1017.8mb 61f 59f
3:00am 2.5ft 14s 7
mph
1018.1mb 61f 59f
2:00am 2.5ft 14s 9
mph
1018.1mb 61f 59f
1:00am 2.5ft 14s 7 9 mph 1018.3mb 61f 59f
12:00am 2.5ft 14s 9
mph
1019mb 60f 59f
Sat 08/01 11:00pm 2.5ft 14s 7
mph
1019.7mb 60f 59f
10:00pm 2.5ft 14s 7
mph
1020.1mb 58f 59f
9:00pm 2.5ft 17s 4 7 mph 1020mb 58f 59f
8:00pm 3.5ft 15s 4
mph
1020.3mb 58f 59f
7:00pm 3.5ft 14s 7 9 mph 1020.4mb 58f 60f
6:00pm 3.5ft 14s 4 7 mph 1020.7mb 57f 60f
5:00pm 3.5ft 14s 4
mph
1021mb 58f 59f
4:00pm 3.5ft 14s 4 7 mph 1021.2mb 54f 58f
3:00pm 3.5ft 14s 4 7 mph 1021.5mb 55f 58f
2:00pm 3.5ft 14s 7
mph
1021.7mb 56f 58f
1:00pm 3.5ft 14s 4
mph
1021.7mb 54f 59f
12:00pm 3.5ft 14s 4
mph
1021.6mb 56f 59f
11:00am 4.5ft 14s 4 7 mph 1021.7mb 58f 59f
10:00am 4ft 15s 7 9 mph 1021.7mb 56f 58f
9:00am 3.5ft 15s 4 7 mph 1021.8mb 53f 58f
8:00am 3.5ft 14s 9 11 mph 1021.5mb 58f 58f
7:00am 3.5ft 14s 9
mph
1021.4mb 60f 59f
6:00am 4ft 14s 7 9 mph 1021.3mb 60f 59f
5:00am 4ft 15s 9 11 mph 1021.2mb 60f 59f
4:00am 4ft 15s 11 13 mph 1021.2mb 61f 59f
3:00am 3.5ft 15s 11 13 mph 1021.1mb 61f 59f
2:00am 4ft 15s 13 18 mph 1021.1mb 61f 60f
1:00am 4ft 15s 11 16 mph 1020.9mb 61f 60f
12:00am 4.5ft 15s 9 11 mph 1021.2mb 60f 60f
Fri 07/31 11:00pm 4.5ft 15s 9 11 mph 1021.3mb 60f 60f
10:00pm 4.5ft 15s 4 7 mph 1021.5mb 60f 59f
9:00pm 4.5ft 14s 7
mph
1021.2mb 59f 59f
8:00pm 5ft 15s 4 7 mph 1021.1mb 59f 59f
7:00pm 5ft 14s 4 7 mph 1021.3mb 57f 59f
6:00pm 4.5ft 14s 9
mph
1021.4mb 57f 60f
5:00pm 4.5ft 15s 9
mph
1021.5mb 59f 61f
3:00pm 4.5ft 14s 9 11 mph 1022mb 60f 61f
2:00pm 4.5ft 15s 11 13 mph 1022mb 60f 61f
1:00pm 5ft 15s 11 13 mph 1021.9mb 61f 62f
12:00pm 4.5ft 7s 11 13 mph 1021.7mb 61f 62f
11:00am 4.5ft 15s 11 13 mph 1021.6mb 60f 61f
10:00am 6ft 7s 11 13 mph 1021.5mb 56f 61f
9:00am 5.5ft 7s 11 13 mph 1021.4mb 58f 61f
8:00am 5ft 7s 11 13 mph 1021.4mb 60f 61f
7:00am 5ft 7s 9 11 mph 1021.3mb 60f 61f
6:00am 5.5ft 7s 11 13 mph 1021mb 60f 61f
5:00am 5ft 7s 9
mph
1021.1mb 60f 60f
4:00am 4.5ft 8s 9 11 mph 1021.1mb 60f 61f
3:00am 4.5ft 8s 9 11 mph 1021.1mb 60f 60f
2:00am 4.5ft 16s 13 16 mph 1021mb 61f 60f
1:00am 4.5ft 15s 9 11 mph 1021.1mb 60f 61f
12:00am 4.5ft 15s 9
mph
1021.5mb 60f 61f
Thu 07/30 11:00pm 5ft 14s 9
mph
1021.8mb 60f 61f
10:00pm 5ft 6s 9 11 mph 1022mb 61f 61f
9:00pm 5ft 16s 9 11 mph 1021.9mb 61f 61f
8:00pm 4.5ft 15s 7 9 mph 1022mb 59f 61f